Herkenbosch, Netherlands
Current Conditions -  °F | °C
As of 8:20 PM on Monday 26 Jan 2015 (Local Time) from EDLN Reporting Station
Scattered Clouds Scattered Clouds  
Wind Chill: 37°   Ceiling: Unl
Heat Index: 43°   Visibility: 6mi
Dew Point: 37°   Wind: 12mph
Humidity: 81%   Direction: 300°WNW
Pressure: 30.09"   Gusts: NA
Location:  51.15°N, 6.06°E
Report Text: EDLN 261920Z 30010KT 9999 FEW030 SCT055 06/03 Q1019 RMK ATIS Z
Loading
Personal Weather Stations






























Interactive Weather Map New forecast layout! Learn more

10-Day Weather Forecast

Advertisements
Track Severe Weather on mobile